sensor_id;sensor_type;location;lat;lon;timestamp;P1;durP1;ratioP1;P2;durP2;ratioP2
2652;SDS011;1336;48.692;9.144;2023-02-14T06:00:55;12.73;;;11.32;;
2652;SDS011;1336;48.692;9.144;2023-02-14T06:01:46;12.37;;;10.97;;
2652;SDS011;1336;48.692;9.144;2023-02-14T06:02:37;13.77;;;12.38;;
2652;SDS011;1336;48.692;9.144;2023-02-14T06:03:28;11.40;;;10.20;;
2652;SDS011;1336;48.692;9.144;2023-02-14T06:04:20;13.45;;;12.00;;
2652;SDS011;1336;48.692;9.144;2023-02-14T06:05:11;12.37;;;11.10;;
2652;SDS011;1336;48.692;9.144;2023-02-14T06:06:04;13.52;;;12.15;;
2652;SDS011;1336;48.692;9.144;2023-02-14T06:06:55;12.75;;;11.45;;
2652;SDS011;1336;48.692;9.144;2023-02-14T06:07:46;12.38;;;11.07;;
2652;SDS011;1336;48.692;9.144;2023-02-14T06:08:39;12.80;;;11.50;;
2652;SDS011;1336;48.692;9.144;2023-02-14T06:09:31;12.88;;;11.57;;
2652;SDS011;1336;48.692;9.144;2023-02-14T06:10:23;13.20;;;11.90;;
2652;SDS011;1336;48.692;9.144;2023-02-14T06:11:15;13.73;;;12.35;;
2652;SDS011;1336;48.692;9.144;2023-02-14T06:12:06;13.17;;;11.80;;
2652;SDS011;1336;48.692;9.144;2023-02-14T06:12:57;12.75;;;11.45;;
2652;SDS011;1336;48.692;9.144;2023-02-14T06:13:48;13.50;;;12.10;;
2652;SDS011;1336;48.692;9.144;2023-02-14T06:14:40;14.60;;;13.10;;
2652;SDS011;1336;48.692;9.144;2023-02-14T06:15:33;13.55;;;12.15;;
2652;SDS011;1336;48.692;9.144;2023-02-14T06:16:24;12.98;;;11.77;;
2652;SDS011;1336;48.692;9.144;2023-02-14T06:17:15;13.20;;;11.87;;
2652;SDS011;1336;48.692;9.144;2023-02-14T06:18:07;14.02;;;11.95;;
2652;SDS011;1336;48.692;9.144;2023-02-14T06:18:58;14.02;;;12.55;;
2652;SDS011;1336;48.692;9.144;2023-02-14T06:19:50;15.90;;;13.52;;
2652;SDS011;1336;48.692;9.144;2023-02-14T06:20:40;22.17;;;18.50;;
2652;SDS011;1336;48.692;9.144;2023-02-14T06:21:32;19.83;;;15.82;;
2652;SDS011;1336;48.692;9.144;2023-02-14T06:22:23;18.93;;;16.33;;
2652;SDS011;1336;48.692;9.144;2023-02-14T06:23:15;21.15;;;16.05;;
2652;SDS011;1336;48.692;9.144;2023-02-14T06:24:05;20.40;;;16.70;;
2652;SDS011;1336;48.692;9.144;2023-02-14T06:24:57;21.75;;;16.55;;
2652;SDS011;1336;48.692;9.144;2023-02-14T06:25:48;20.30;;;16.57;;
2652;SDS011;1336;48.692;9.144;2023-02-14T06:26:40;20.88;;;17.13;;
2652;SDS011;1336;48.692;9.144;2023-02-14T06:27:31;24.80;;;18.37;;
2652;SDS011;1336;48.692;9.144;2023-02-14T06:28:23;22.45;;;18.33;;
2652;SDS011;1336;48.692;9.144;2023-02-14T06:29:15;24.70;;;19.70;;
2652;SDS011;1336;48.692;9.144;2023-02-14T06:30:07;27.70;;;19.80;;
2652;SDS011;1336;48.692;9.144;2023-02-14T06:31:00;29.92;;;21.40;;
2652;SDS011;1336;48.692;9.144;2023-02-14T06:31:52;26.77;;;19.92;;
2652;SDS011;1336;48.692;9.144;2023-02-14T06:32:42;25.93;;;20.20;;
2652;SDS011;1336;48.692;9.144;2023-02-14T06:33:34;25.60;;;19.13;;
2652;SDS011;1336;48.692;9.144;2023-02-14T06:34:25;28.37;;;19.10;;
2652;SDS011;1336;48.692;9.144;2023-02-14T06:35:17;21.30;;;17.92;;
2652;SDS011;1336;48.692;9.144;2023-02-14T06:36:08;19.55;;;17.45;;
2652;SDS011;1336;48.692;9.144;2023-02-14T06:37:00;19.73;;;17.20;;
2652;SDS011;1336;48.692;9.144;2023-02-14T06:37:51;21.23;;;16.53;;
2652;SDS011;1336;48.692;9.144;2023-02-14T06:38:43;20.80;;;16.05;;
2652;SDS011;1336;48.692;9.144;2023-02-14T06:39:34;17.50;;;15.60;;
2652;SDS011;1336;48.692;9.144;2023-02-14T06:40:25;17.67;;;15.77;;
2652;SDS011;1336;48.692;9.144;2023-02-14T06:41:16;16.97;;;15.27;;
2652;SDS011;1336;48.692;9.144;2023-02-14T06:42:08;16.23;;;14.52;;
2652;SDS011;1336;48.692;9.144;2023-02-14T06:42:59;17.65;;;15.75;;
2652;SDS011;1336;48.692;9.144;2023-02-14T06:43:51;18.92;;;16.13;;
2652;SDS011;1336;48.692;9.144;2023-02-14T06:44:42;17.13;;;15.33;;
2652;SDS011;1336;48.692;9.144;2023-02-14T06:45:33;17.77;;;15.43;;
2652;SDS011;1336;48.692;9.144;2023-02-14T06:46:25;19.57;;;16.80;;
2652;SDS011;1336;48.692;9.144;2023-02-14T06:47:17;23.83;;;19.70;;
2652;SDS011;1336;48.692;9.144;2023-02-14T06:48:08;22.50;;;19.50;;
2652;SDS011;1336;48.692;9.144;2023-02-14T06:49:00;24.13;;;20.00;;
2652;SDS011;1336;48.692;9.144;2023-02-14T06:49:50;20.67;;;17.97;;
2652;SDS011;1336;48.692;9.144;2023-02-14T06:50:42;20.95;;;18.40;;
2652;SDS011;1336;48.692;9.144;2023-02-14T06:51:33;23.60;;;18.10;;
2652;SDS011;1336;48.692;9.144;2023-02-14T06:52:24;20.58;;;16.35;;
2652;SDS011;1336;48.692;9.144;2023-02-14T06:53:15;18.13;;;16.10;;
2652;SDS011;1336;48.692;9.144;2023-02-14T06:54:07;18.77;;;15.40;;
2652;SDS011;1336;48.692;9.144;2023-02-14T06:54:58;17.77;;;15.20;;
2652;SDS011;1336;48.692;9.144;2023-02-14T06:55:49;16.80;;;14.70;;
2652;SDS011;1336;48.692;9.144;2023-02-14T06:56:40;16.00;;;14.30;;
2652;SDS011;1336;48.692;9.144;2023-02-14T06:57:32;17.35;;;14.55;;
2652;SDS011;1336;48.692;9.144;2023-02-14T06:58:23;17.10;;;14.70;;
2652;SDS011;1336;48.692;9.144;2023-02-14T06:59:15;15.32;;;13.73;;
2652;SDS011;1336;48.692;9.144;2023-02-14T07:00:06;16.23;;;13.25;;
2652;SDS011;1336;48.692;9.144;2023-02-14T07:00:59;15.52;;;13.93;;
2652;SDS011;1336;48.692;9.144;2023-02-14T07:01:51;15.50;;;13.80;;
2652;SDS011;1336;48.692;9.144;2023-02-14T07:02:43;15.90;;;13.60;;
2652;SDS011;1336;48.692;9.144;2023-02-14T07:03:34;15.07;;;13.47;;
2652;SDS011;1336;48.692;9.144;2023-02-14T07:04:25;14.63;;;12.80;;
2652;SDS011;1336;48.692;9.144;2023-02-14T07:05:16;15.27;;;13.70;;
2652;SDS011;1336;48.692;9.144;2023-02-14T07:06:08;14.77;;;13.25;;
2652;SDS011;1336;48.692;9.144;2023-02-14T07:06:59;13.90;;;12.60;;
2652;SDS011;1336;48.692;9.144;2023-02-14T07:07:51;13.68;;;12.38;;
2652;SDS011;1336;48.692;9.144;2023-02-14T07:08:42;13.20;;;11.90;;
2652;SDS011;1336;48.692;9.144;2023-02-14T07:09:33;15.80;;;12.85;;
2652;SDS011;1336;48.692;9.144;2023-02-14T07:10:24;15.37;;;13.30;;
2652;SDS011;1336;48.692;9.144;2023-02-14T07:11:16;15.70;;;14.00;;
2652;SDS011;1336;48.692;9.144;2023-02-14T07:12:10;15.70;;;14.10;;
2652;SDS011;1336;48.692;9.144;2023-02-14T07:13:02;13.85;;;12.35;;
2652;SDS011;1336;48.692;9.144;2023-02-14T07:13:53;14.65;;;12.02;;
2652;SDS011;1336;48.692;9.144;2023-02-14T07:14:45;14.07;;;12.68;;
2652;SDS011;1336;48.692;9.144;2023-02-14T07:15:35;14.97;;;13.37;;
2652;SDS011;1336;48.692;9.144;2023-02-14T07:16:27;14.30;;;12.48;;
2652;SDS011;1336;48.692;9.144;2023-02-14T07:17:19;13.57;;;12.17;;
2652;SDS011;1336;48.692;9.144;2023-02-14T07:18:11;16.00;;;13.27;;
2652;SDS011;1336;48.692;9.144;2023-02-14T07:19:02;14.00;;;12.60;;
2652;SDS011;1336;48.692;9.144;2023-02-14T07:19:53;15.13;;;13.05;;
2652;SDS011;1336;48.692;9.144;2023-02-14T07:20:44;14.63;;;13.03;;
2652;SDS011;1336;48.692;9.144;2023-02-14T07:21:36;15.30;;;13.70;;
2652;SDS011;1336;48.692;9.144;2023-02-14T07:22:26;15.67;;;13.97;;
2652;SDS011;1336;48.692;9.144;2023-02-14T07:23:18;87.82;;;21.85;;
2652;SDS011;1336;48.692;9.144;2023-02-14T07:24:09;428.97;;;50.23;;
2652;SDS011;1336;48.692;9.144;2023-02-14T07:25:01;283.08;;;42.55;;
2652;SDS011;1336;48.692;9.144;2023-02-14T07:25:51;501.77;;;62.33;;
2652;SDS011;1336;48.692;9.144;2023-02-14T07:26:44;440.13;;;57.28;;
2652;SDS011;1336;48.692;9.144;2023-02-14T07:27:35;166.50;;;28.50;;
2652;SDS011;1336;48.692;9.144;2023-02-14T07:28:28;530.47;;;54.58;;
2652;SDS011;1336;48.692;9.144;2023-02-14T07:29:19;393.13;;;45.95;;
2652;SDS011;1336;48.692;9.144;2023-02-14T07:30:11;389.08;;;46.78;;
2652;SDS011;1336;48.692;9.144;2023-02-14T07:31:03;201.70;;;33.13;;
2652;SDS011;1336;48.692;9.144;2023-02-14T07:31:55;109.47;;;24.20;;
2652;SDS011;1336;48.692;9.144;2023-02-14T07:32:47;50.57;;;22.03;;
2652;SDS011;1336;48.692;9.144;2023-02-14T07:33:39;65.35;;;20.92;;
2652;SDS011;1336;48.692;9.144;2023-02-14T07:34:29;47.20;;;19.33;;
2652;SDS011;1336;48.692;9.144;2023-02-14T07:35:22;32.63;;;19.67;;
2652;SDS011;1336;48.692;9.144;2023-02-14T07:36:12;37.87;;;20.80;;
2652;SDS011;1336;48.692;9.144;2023-02-14T07:37:04;28.35;;;19.13;;
2652;SDS011;1336;48.692;9.144;2023-02-14T07:37:55;25.63;;;19.40;;
2652;SDS011;1336;48.692;9.144;2023-02-14T07:38:48;29.73;;;20.95;;
2652;SDS011;1336;48.692;9.144;2023-02-14T07:39:38;32.17;;;20.50;;
2652;SDS011;1336;48.692;9.144;2023-02-14T07:40:30;26.05;;;19.30;;
2652;SDS011;1336;48.692;9.144;2023-02-14T07:41:21;26.70;;;19.50;;
2652;SDS011;1336;48.692;9.144;2023-02-14T07:42:13;27.92;;;21.15;;
2652;SDS011;1336;48.692;9.144;2023-02-14T07:43:03;25.10;;;21.27;;
2652;SDS011;1336;48.692;9.144;2023-02-14T07:43:56;27.90;;;21.30;;
2652;SDS011;1336;48.692;9.144;2023-02-14T07:44:48;26.48;;;21.35;;
2652;SDS011;1336;48.692;9.144;2023-02-14T07:45:39;28.73;;;22.57;;
2652;SDS011;1336;48.692;9.144;2023-02-14T07:46:31;28.92;;;21.60;;
2652;SDS011;1336;48.692;9.144;2023-02-14T07:47:21;25.30;;;21.20;;
2652;SDS011;1336;48.692;9.144;2023-02-14T07:48:15;35.30;;;23.50;;
2652;SDS011;1336;48.692;9.144;2023-02-14T07:49:06;24.77;;;21.52;;
2652;SDS011;1336;48.692;9.144;2023-02-14T07:49:58;31.23;;;23.17;;
2652;SDS011;1336;48.692;9.144;2023-02-14T07:50:48;27.33;;;22.47;;
2652;SDS011;1336;48.692;9.144;2023-02-14T07:51:40;27.00;;;21.70;;
2652;SDS011;1336;48.692;9.144;2023-02-14T07:52:31;32.57;;;21.23;;
2652;SDS011;1336;48.692;9.144;2023-02-14T07:53:22;24.73;;;21.08;;
2652;SDS011;1336;48.692;9.144;2023-02-14T07:54:13;27.83;;;21.25;;
2652;SDS011;1336;48.692;9.144;2023-02-14T07:55:05;26.20;;;20.65;;
2652;SDS011;1336;48.692;9.144;2023-02-14T07:55:56;24.83;;;20.08;;
2652;SDS011;1336;48.692;9.144;2023-02-14T07:56:48;27.95;;;21.80;;
2652;SDS011;1336;48.692;9.144;2023-02-14T07:57:39;26.73;;;21.60;;
2652;SDS011;1336;48.692;9.144;2023-02-14T07:58:30;23.70;;;21.05;;
2652;SDS011;1336;48.692;9.144;2023-02-14T07:59:21;25.93;;;21.13;;
2652;SDS011;1336;48.692;9.144;2023-02-14T08:00:13;25.15;;;21.05;;
2652;SDS011;1336;48.692;9.144;2023-02-14T08:01:04;25.40;;;22.23;;
2652;SDS011;1336;48.692;9.144;2023-02-14T08:01:56;27.05;;;22.73;;
2652;SDS011;1336;48.692;9.144;2023-02-14T08:02:47;32.40;;;22.80;;
2652;SDS011;1336;48.692;9.144;2023-02-14T08:03:40;28.70;;;22.08;;
2652;SDS011;1336;48.692;9.144;2023-02-14T08:04:38;35.35;;;23.27;;
2652;SDS011;1336;48.692;9.144;2023-02-14T08:05:30;29.23;;;21.63;;
2652;SDS011;1336;48.692;9.144;2023-02-14T08:06:20;246.90;;;38.20;;
2652;SDS011;1336;48.692;9.144;2023-02-14T08:07:14;188.80;;;33.92;;
2652;SDS011;1336;48.692;9.144;2023-02-14T08:08:05;134.43;;;33.23;;
2652;SDS011;1336;48.692;9.144;2023-02-14T08:08:57;124.88;;;30.30;;
2652;SDS011;1336;48.692;9.144;2023-02-14T08:09:48;89.63;;;28.87;;
2652;SDS011;1336;48.692;9.144;2023-02-14T08:10:40;30.70;;;20.65;;
2652;SDS011;1336;48.692;9.144;2023-02-14T08:11:30;30.30;;;23.00;;
2652;SDS011;1336;48.692;9.144;2023-02-14T08:12:40;26.85;;;22.60;;
2652;SDS011;1336;48.692;9.144;2023-02-14T08:13:50;25.05;;;21.83;;
2652;SDS011;1336;48.692;9.144;2023-02-14T08:14:42;32.60;;;23.10;;
2652;SDS011;1336;48.692;9.144;2023-02-14T08:15:34;44.72;;;23.50;;
2652;SDS011;1336;48.692;9.144;2023-02-14T08:16:43;43.90;;;22.45;;
2652;SDS011;1336;48.692;9.144;2023-02-14T08:17:35;32.15;;;22.02;;
2652;SDS011;1336;48.692;9.144;2023-02-14T08:18:25;32.30;;;22.07;;
2652;SDS011;1336;48.692;9.144;2023-02-14T08:19:19;33.65;;;22.08;;
2652;SDS011;1336;48.692;9.144;2023-02-14T08:20:10;24.88;;;17.05;;
2652;SDS011;1336;48.692;9.144;2023-02-14T08:21:03;28.98;;;18.25;;
2652;SDS011;1336;48.692;9.144;2023-02-14T08:21:55;27.17;;;18.00;;
2652;SDS011;1336;48.692;9.144;2023-02-14T08:22:46;35.15;;;20.52;;
2652;SDS011;1336;48.692;9.144;2023-02-14T08:23:37;36.17;;;19.40;;
2652;SDS011;1336;48.692;9.144;2023-02-14T08:24:29;63.75;;;22.75;;
2652;SDS011;1336;48.692;9.144;2023-02-14T08:25:20;86.72;;;23.70;;
2652;SDS011;1336;48.692;9.144;2023-02-14T08:26:12;56.60;;;20.80;;
2652;SDS011;1336;48.692;9.144;2023-02-14T08:27:03;36.03;;;17.98;;
2652;SDS011;1336;48.692;9.144;2023-02-14T08:27:54;35.23;;;18.70;;
2652;SDS011;1336;48.692;9.144;2023-02-14T08:28:46;31.08;;;20.55;;
2652;SDS011;1336;48.692;9.144;2023-02-14T08:29:38;42.67;;;19.83;;
2652;SDS011;1336;48.692;9.144;2023-02-14T08:30:29;42.17;;;17.73;;
2652;SDS011;1336;48.692;9.144;2023-02-14T08:31:22;34.33;;;19.95;;
2652;SDS011;1336;48.692;9.144;2023-02-14T08:32:14;26.45;;;19.80;;
2652;SDS011;1336;48.692;9.144;2023-02-14T08:33:09;25.10;;;20.17;;
2652;SDS011;1336;48.692;9.144;2023-02-14T08:34:02;28.33;;;20.58;;
2652;SDS011;1336;48.692;9.144;2023-02-14T08:34:54;26.58;;;21.77;;
2652;SDS011;1336;48.692;9.144;2023-02-14T08:35:46;27.80;;;20.42;;
2652;SDS011;1336;48.692;9.144;2023-02-14T08:36:37;29.80;;;20.27;;
2652;SDS011;1336;48.692;9.144;2023-02-14T08:37:28;23.80;;;20.60;;
2652;SDS011;1336;48.692;9.144;2023-02-14T08:38:19;20.77;;;18.57;;
2652;SDS011;1336;48.692;9.144;2023-02-14T08:39:11;22.83;;;19.35;;
2652;SDS011;1336;48.692;9.144;2023-02-14T08:40:02;22.23;;;19.40;;
2652;SDS011;1336;48.692;9.144;2023-02-14T08:40:54;22.13;;;18.50;;
2652;SDS011;1336;48.692;9.144;2023-02-14T08:41:49;21.38;;;18.50;;
2652;SDS011;1336;48.692;9.144;2023-02-14T08:42:40;22.07;;;19.80;;
2652;SDS011;1336;48.692;9.144;2023-02-14T08:43:32;22.92;;;19.23;;
2652;SDS011;1336;48.692;9.144;2023-02-14T08:44:22;22.23;;;19.57;;
2652;SDS011;1336;48.692;9.144;2023-02-14T08:45:14;21.00;;;18.40;;
2652;SDS011;1336;48.692;9.144;2023-02-14T08:46:05;21.50;;;19.20;;
2652;SDS011;1336;48.692;9.144;2023-02-14T08:46:57;20.75;;;17.63;;
2652;SDS011;1336;48.692;9.144;2023-02-14T08:47:47;20.70;;;18.43;;
2652;SDS011;1336;48.692;9.144;2023-02-14T08:48:39;20.45;;;18.30;;
2652;SDS011;1336;48.692;9.144;2023-02-14T08:49:30;19.70;;;17.60;;
2652;SDS011;1336;48.692;9.144;2023-02-14T08:50:23;19.10;;;17.10;;
2652;SDS011;1336;48.692;9.144;2023-02-14T08:51:15;20.60;;;18.40;;
2652;SDS011;1336;48.692;9.144;2023-02-14T08:52:07;19.52;;;17.52;;
2652;SDS011;1336;48.692;9.144;2023-02-14T08:52:58;20.17;;;17.67;;
2652;SDS011;1336;48.692;9.144;2023-02-14T08:53:49;20.23;;;17.90;;
2652;SDS011;1336;48.692;9.144;2023-02-14T08:54:40;18.17;;;16.15;;
2652;SDS011;1336;48.692;9.144;2023-02-14T08:55:32;20.67;;;18.48;;
2652;SDS011;1336;48.692;9.144;2023-02-14T08:56:24;20.90;;;18.70;;
2652;SDS011;1336;48.692;9.144;2023-02-14T08:57:15;20.60;;;17.77;;
2652;SDS011;1336;48.692;9.144;2023-02-14T08:58:06;19.63;;;17.53;;
2652;SDS011;1336;48.692;9.144;2023-02-14T08:58:58;21.20;;;17.15;;
2652;SDS011;1336;48.692;9.144;2023-02-14T08:59:50;22.83;;;17.73;;
2652;SDS011;1336;48.692;9.144;2023-02-14T09:00:41;19.50;;;17.40;;
2652;SDS011;1336;48.692;9.144;2023-02-14T09:01:32;20.10;;;17.75;;
2652;SDS011;1336;48.692;9.144;2023-02-14T09:02:25;19.88;;;17.88;;
2652;SDS011;1336;48.692;9.144;2023-02-14T09:03:17;18.75;;;16.75;;
2652;SDS011;1336;48.692;9.144;2023-02-14T09:04:08;19.05;;;17.05;;
2652;SDS011;1336;48.692;9.144;2023-02-14T09:04:59;21.30;;;18.83;;
2652;SDS011;1336;48.692;9.144;2023-02-14T09:05:52;19.50;;;16.80;;
2652;SDS011;1336;48.692;9.144;2023-02-14T09:06:43;19.20;;;17.20;;
2652;SDS011;1336;48.692;9.144;2023-02-14T09:07:35;18.00;;;16.10;;
2652;SDS011;1336;48.692;9.144;2023-02-14T09:08:26;17.92;;;16.02;;
2652;SDS011;1336;48.692;9.144;2023-02-14T09:09:17;19.92;;;17.85;;
2652;SDS011;1336;48.692;9.144;2023-02-14T09:10:09;19.52;;;16.83;;
2652;SDS011;1336;48.692;9.144;2023-02-14T09:11:05;18.88;;;16.83;;
2652;SDS011;1336;48.692;9.144;2023-02-14T09:11:56;17.60;;;15.85;;
2652;SDS011;1336;48.692;9.144;2023-02-14T09:12:48;19.30;;;17.08;;
2652;SDS011;1336;48.692;9.144;2023-02-14T09:13:40;17.30;;;15.50;;
2652;SDS011;1336;48.692;9.144;2023-02-14T09:14:33;18.08;;;15.38;;
2652;SDS011;1336;48.692;9.144;2023-02-14T09:15:25;17.55;;;15.73;;
2652;SDS011;1336;48.692;9.144;2023-02-14T09:16:18;18.00;;;16.15;;
2652;SDS011;1336;48.692;9.144;2023-02-14T09:17:11;17.00;;;15.23;;
2652;SDS011;1336;48.692;9.144;2023-02-14T09:18:04;16.27;;;14.68;;
2652;SDS011;1336;48.692;9.144;2023-02-14T09:18:54;17.20;;;15.50;;
2652;SDS011;1336;48.692;9.144;2023-02-14T09:19:46;18.02;;;16.13;;
2652;SDS011;1336;48.692;9.144;2023-02-14T09:20:37;17.00;;;15.33;;
2652;SDS011;1336;48.692;9.144;2023-02-14T09:21:30;18.00;;;16.20;;
2652;SDS011;1336;48.692;9.144;2023-02-14T09:22:21;18.15;;;16.25;;
2652;SDS011;1336;48.692;9.144;2023-02-14T09:23:13;18.92;;;16.92;;
2652;SDS011;1336;48.692;9.144;2023-02-14T09:24:03;19.20;;;15.90;;
2652;SDS011;1336;48.692;9.144;2023-02-14T09:24:55;18.13;;;16.25;;
2652;SDS011;1336;48.692;9.144;2023-02-14T09:25:46;19.33;;;16.77;;
2652;SDS011;1336;48.692;9.144;2023-02-14T09:26:37;17.50;;;15.50;;
2652;SDS011;1336;48.692;9.144;2023-02-14T09:27:31;17.45;;;15.75;;
2652;SDS011;1336;48.692;9.144;2023-02-14T09:28:23;17.60;;;15.45;;
2652;SDS011;1336;48.692;9.144;2023-02-14T09:29:13;18.03;;;15.73;;
2652;SDS011;1336;48.692;9.144;2023-02-14T09:30:05;16.38;;;14.52;;
2652;SDS011;1336;48.692;9.144;2023-02-14T09:30:58;17.67;;;15.82;;
2652;SDS011;1336;48.692;9.144;2023-02-14T09:31:58;18.23;;;16.33;;
2652;SDS011;1336;48.692;9.144;2023-02-14T09:32:51;16.75;;;14.98;;
2652;SDS011;1336;48.692;9.144;2023-02-14T09:33:43;17.35;;;15.35;;
2652;SDS011;1336;48.692;9.144;2023-02-14T09:34:54;16.45;;;14.85;;
2652;SDS011;1336;48.692;9.144;2023-02-14T09:35:45;16.90;;;15.10;;
2652;SDS011;1336;48.692;9.144;2023-02-14T09:36:56;18.42;;;14.68;;
2652;SDS011;1336;48.692;9.144;2023-02-14T09:37:48;16.92;;;15.00;;
2652;SDS011;1336;48.692;9.144;2023-02-14T09:38:39;18.07;;;14.30;;
2652;SDS011;1336;48.692;9.144;2023-02-14T09:39:29;17.53;;;15.83;;
2652;SDS011;1336;48.692;9.144;2023-02-14T09:40:21;16.30;;;14.80;;
2652;SDS011;1336;48.692;9.144;2023-02-14T09:41:17;17.88;;;16.08;;
2652;SDS011;1336;48.692;9.144;2023-02-14T09:42:39;17.40;;;15.70;;
2652;SDS011;1336;48.692;9.144;2023-02-14T09:43:35;17.70;;;15.68;;
2652;SDS011;1336;48.692;9.144;2023-02-14T09:44:35;17.13;;;15.52;;
2652;SDS011;1336;48.692;9.144;2023-02-14T09:45:31;17.92;;;16.15;;
2652;SDS011;1336;48.692;9.144;2023-02-14T09:46:24;17.25;;;15.75;;
2652;SDS011;1336;48.692;9.144;2023-02-14T09:47:19;17.15;;;15.45;;
2652;SDS011;1336;48.692;9.144;2023-02-14T09:48:13;17.05;;;15.38;;
2652;SDS011;1336;48.692;9.144;2023-02-14T09:49:16;16.30;;;14.80;;
2652;SDS011;1336;48.692;9.144;2023-02-14T09:50:15;17.88;;;16.23;;
2652;SDS011;1336;48.692;9.144;2023-02-14T09:51:13;16.65;;;15.13;;
2652;SDS011;1336;48.692;9.144;2023-02-14T09:52:09;16.92;;;15.27;;
2652;SDS011;1336;48.692;9.144;2023-02-14T09:53:05;15.40;;;14.10;;
2652;SDS011;1336;48.692;9.144;2023-02-14T09:54:08;15.95;;;14.55;;
2652;SDS011;1336;48.692;9.144;2023-02-14T09:55:02;14.35;;;13.05;;
2652;SDS011;1336;48.692;9.144;2023-02-14T09:55:56;15.43;;;13.98;;
2652;SDS011;1336;48.692;9.144;2023-02-14T09:56:57;14.32;;;12.93;;
2652;SDS011;1336;48.692;9.144;2023-02-14T09:58:01;15.15;;;13.85;;
2652;SDS011;1336;48.692;9.144;2023-02-14T09:58:59;15.25;;;13.95;;
2652;SDS011;1336;48.692;9.144;2023-02-14T09:59:59;14.50;;;13.10;;
2652;SDS011;1336;48.692;9.144;2023-02-14T10:01:01;14.10;;;12.80;;
2652;SDS011;1336;48.692;9.144;2023-02-14T10:02:02;13.93;;;12.82;;
2652;SDS011;1336;48.692;9.144;2023-02-14T10:03:27;14.18;;;12.98;;
2652;SDS011;1336;48.692;9.144;2023-02-14T10:04:40;15.57;;;14.18;;
2652;SDS011;1336;48.692;9.144;2023-02-14T10:05:39;16.58;;;14.77;;
2652;SDS011;1336;48.692;9.144;2023-02-14T10:06:41;15.35;;;13.95;;
2652;SDS011;1336;48.692;9.144;2023-02-14T10:07:48;15.40;;;14.00;;
2652;SDS011;1336;48.692;9.144;2023-02-14T10:08:51;14.82;;;13.63;;
2652;SDS011;1336;48.692;9.144;2023-02-14T10:09:53;15.82;;;14.43;;
2652;SDS011;1336;48.692;9.144;2023-02-14T10:10:51;13.85;;;12.63;;
2652;SDS011;1336;48.692;9.144;2023-02-14T10:11:52;13.40;;;12.30;;
2652;SDS011;1336;48.692;9.144;2023-02-14T10:12:44;13.48;;;12.38;;
2652;SDS011;1336;48.692;9.144;2023-02-14T10:13:41;13.87;;;12.67;;
2652;SDS011;1336;48.692;9.144;2023-02-14T10:14:36;14.23;;;13.05;;
2652;SDS011;1336;48.692;9.144;2023-02-14T10:15:30;14.05;;;12.95;;
2652;SDS011;1336;48.692;9.144;2023-02-14T10:16:24;14.20;;;12.90;;
2652;SDS011;1336;48.692;9.144;2023-02-14T10:17:23;15.63;;;13.30;;
2652;SDS011;1336;48.692;9.144;2023-02-14T10:18:23;13.53;;;12.43;;
2652;SDS011;1336;48.692;9.144;2023-02-14T10:19:20;14.00;;;12.70;;
2652;SDS011;1336;48.692;9.144;2023-02-14T10:20:19;13.67;;;12.47;;
2652;SDS011;1336;48.692;9.144;2023-02-14T10:21:16;13.50;;;12.40;;
2652;SDS011;1336;48.692;9.144;2023-02-14T10:22:14;12.50;;;11.50;;
2652;SDS011;1336;48.692;9.144;2023-02-14T10:23:16;12.73;;;11.57;;
2652;SDS011;1336;48.692;9.144;2023-02-14T10:24:15;14.03;;;12.03;;
2652;SDS011;1336;48.692;9.144;2023-02-14T10:25:13;12.10;;;11.10;;
2652;SDS011;1336;48.692;9.144;2023-02-14T10:26:11;13.90;;;12.60;;
2652;SDS011;1336;48.692;9.144;2023-02-14T10:27:10;14.23;;;12.90;;
2652;SDS011;1336;48.692;9.144;2023-02-14T10:28:08;15.43;;;14.10;;
2652;SDS011;1336;48.692;9.144;2023-02-14T10:29:02;15.57;;;14.17;;
2652;SDS011;1336;48.692;9.144;2023-02-14T10:29:58;16.57;;;14.30;;
2652;SDS011;1336;48.692;9.144;2023-02-14T10:30:51;17.60;;;13.47;;
2652;SDS011;1336;48.692;9.144;2023-02-14T10:31:50;15.10;;;13.80;;
2652;SDS011;1336;48.692;9.144;2023-02-14T10:32:46;17.00;;;13.80;;
2652;SDS011;1336;48.692;9.144;2023-02-14T10:33:39;15.30;;;14.00;;
2652;SDS011;1336;48.692;9.144;2023-02-14T10:34:34;13.97;;;12.67;;
2652;SDS011;1336;48.692;9.144;2023-02-14T10:35:37;15.17;;;13.87;;
2652;SDS011;1336;48.692;9.144;2023-02-14T10:36:36;15.77;;;14.23;;
2652;SDS011;1336;48.692;9.144;2023-02-14T10:37:38;14.50;;;13.10;;
2652;SDS011;1336;48.692;9.144;2023-02-14T10:38:40;15.53;;;13.90;;
2652;SDS011;1336;48.692;9.144;2023-02-14T10:39:41;14.90;;;13.50;;
2652;SDS011;1336;48.692;9.144;2023-02-14T10:41:13;14.80;;;13.30;;
2652;SDS011;1336;48.692;9.144;2023-02-14T10:42:15;14.97;;;13.40;;
2652;SDS011;1336;48.692;9.144;2023-02-14T10:43:13;14.93;;;13.57;;
2652;SDS011;1336;48.692;9.144;2023-02-14T10:44:16;14.30;;;13.00;;
2652;SDS011;1336;48.692;9.144;2023-02-14T10:45:19;14.00;;;12.70;;
2652;SDS011;1336;48.692;9.144;2023-02-14T10:46:18;12.83;;;11.83;;
2652;SDS011;1336;48.692;9.144;2023-02-14T10:47:22;13.30;;;12.17;;
2652;SDS011;1336;48.692;9.144;2023-02-14T10:48:24;13.20;;;12.10;;
2652;SDS011;1336;48.692;9.144;2023-02-14T10:49:24;13.27;;;12.17;;
2652;SDS011;1336;48.692;9.144;2023-02-14T10:50:24;13.50;;;12.13;;
2652;SDS011;1336;48.692;9.144;2023-02-14T10:51:23;13.93;;;12.63;;
2652;SDS011;1336;48.692;9.144;2023-02-14T10:52:21;13.37;;;12.30;;
2652;SDS011;1336;48.692;9.144;2023-02-14T10:53:22;13.90;;;12.60;;
2652;SDS011;1336;48.692;9.144;2023-02-14T10:54:19;12.57;;;11.50;;
2652;SDS011;1336;48.692;9.144;2023-02-14T10:55:17;12.87;;;11.70;;
2652;SDS011;1336;48.692;9.144;2023-02-14T10:56:13;12.90;;;11.90;;
2652;SDS011;1336;48.692;9.144;2023-02-14T10:57:11;12.63;;;11.63;;
2652;SDS011;1336;48.692;9.144;2023-02-14T10:58:08;12.70;;;11.70;;
2652;SDS011;1336;48.692;9.144;2023-02-14T10:59:10;11.70;;;10.70;;
2652;SDS011;1336;48.692;9.144;2023-02-14T11:00:15;11.80;;;10.90;;
2652;SDS011;1336;48.692;9.144;2023-02-14T11:01:11;11.23;;;10.40;;
2652;SDS011;1336;48.692;9.144;2023-02-14T11:02:04;12.47;;;11.57;;
2652;SDS011;1336;48.692;9.144;2023-02-14T11:02:59;12.90;;;11.90;;
2652;SDS011;1336;48.692;9.144;2023-02-14T11:03:55;11.07;;;10.20;;
2652;SDS011;1336;48.692;9.144;2023-02-14T11:04:52;12.53;;;11.50;;
2652;SDS011;1336;48.692;9.144;2023-02-14T11:05:46;11.73;;;10.83;;
2652;SDS011;1336;48.692;9.144;2023-02-14T11:06:38;12.40;;;11.30;;
2652;SDS011;1336;48.692;9.144;2023-02-14T11:07:30;12.33;;;11.33;;
2652;SDS011;1336;48.692;9.144;2023-02-14T11:08:23;12.20;;;11.23;;
2652;SDS011;1336;48.692;9.144;2023-02-14T11:09:16;11.60;;;10.70;;
2652;SDS011;1336;48.692;9.144;2023-02-14T11:10:10;11.27;;;10.17;;
2652;SDS011;1336;48.692;9.144;2023-02-14T11:11:06;13.13;;;12.00;;
2652;SDS011;1336;48.692;9.144;2023-02-14T11:12:05;13.63;;;12.30;;
2652;SDS011;1336;48.692;9.144;2023-02-14T11:12:58;14.10;;;13.00;;
2652;SDS011;1336;48.692;9.144;2023-02-14T11:13:50;14.27;;;12.87;;
2652;SDS011;1336;48.692;9.144;2023-02-14T11:14:40;15.17;;;13.70;;
2652;SDS011;1336;48.692;9.144;2023-02-14T11:15:32;15.17;;;13.77;;
2652;SDS011;1336;48.692;9.144;2023-02-14T11:16:30;14.27;;;13.00;;
2652;SDS011;1336;48.692;9.144;2023-02-14T11:17:27;15.20;;;14.00;;
2652;SDS011;1336;48.692;9.144;2023-02-14T11:18:20;14.33;;;13.00;;
2652;SDS011;1336;48.692;9.144;2023-02-14T11:19:17;14.30;;;12.87;;
2652;SDS011;1336;48.692;9.144;2023-02-14T11:20:20;15.70;;;13.67;;
2652;SDS011;1336;48.692;9.144;2023-02-14T11:21:14;15.00;;;13.60;;
2652;SDS011;1336;48.692;9.144;2023-02-14T11:22:10;16.13;;;14.63;;
2652;SDS011;1336;48.692;9.144;2023-02-14T11:23:17;15.07;;;13.77;;
2652;SDS011;1336;48.692;9.144;2023-02-14T11:24:16;15.00;;;13.80;;
2652;SDS011;1336;48.692;9.144;2023-02-14T11:25:16;15.50;;;13.83;;
2652;SDS011;1336;48.692;9.144;2023-02-14T11:26:10;15.20;;;14.00;;